sensor_id;sensor_type;location;lat;lon;timestamp;P1;durP1;ratioP1;P2;durP2;ratioP2
4517;SDS011;2271;49.464;11.070;2024-03-02T00:00:08;33.37;;;20.43;;
4517;SDS011;2271;49.464;11.070;2024-03-02T00:02:46;35.63;;;20.20;;
4517;SDS011;2271;49.464;11.070;2024-03-02T00:05:13;32.80;;;20.83;;
4517;SDS011;2271;49.464;11.070;2024-03-02T00:07:43;37.47;;;22.57;;
4517;SDS011;2271;49.464;11.070;2024-03-02T00:10:10;35.87;;;21.77;;
4517;SDS011;2271;49.464;11.070;2024-03-02T00:12:39;39.00;;;21.33;;
4517;SDS011;2271;49.464;11.070;2024-03-02T00:15:52;31.40;;;20.20;;
4517;SDS011;2271;49.464;11.070;2024-03-02T00:17:55;33.23;;;19.27;;
4517;SDS011;2271;49.464;11.070;2024-03-02T00:20:22;36.37;;;21.60;;
4517;SDS011;2271;49.464;11.070;2024-03-02T00:22:48;36.13;;;21.33;;
4517;SDS011;2271;49.464;11.070;2024-03-02T00:25:15;33.33;;;20.47;;
4517;SDS011;2271;49.464;11.070;2024-03-02T00:27:41;35.93;;;20.80;;
4517;SDS011;2271;49.464;11.070;2024-03-02T00:30:34;38.70;;;21.93;;
4517;SDS011;2271;49.464;11.070;2024-03-02T00:33:01;33.20;;;20.13;;
4517;SDS011;2271;49.464;11.070;2024-03-02T00:35:32;38.83;;;21.30;;
4517;SDS011;2271;49.464;11.070;2024-03-02T00:37:57;34.77;;;20.00;;
4517;SDS011;2271;49.464;11.070;2024-03-02T00:40:28;36.83;;;21.83;;
4517;SDS011;2271;49.464;11.070;2024-03-02T00:42:55;34.93;;;21.83;;
4517;SDS011;2271;49.464;11.070;2024-03-02T00:45:21;31.63;;;20.53;;
4517;SDS011;2271;49.464;11.070;2024-03-02T00:47:47;37.33;;;20.93;;
4517;SDS011;2271;49.464;11.070;2024-03-02T00:50:12;31.20;;;20.00;;
4517;SDS011;2271;49.464;11.070;2024-03-02T00:52:39;32.50;;;19.57;;
4517;SDS011;2271;49.464;11.070;2024-03-02T00:55:06;33.73;;;20.63;;
4517;SDS011;2271;49.464;11.070;2024-03-02T00:57:33;37.87;;;22.37;;
4517;SDS011;2271;49.464;11.070;2024-03-02T00:59:59;40.47;;;21.70;;
4517;SDS011;2271;49.464;11.070;2024-03-02T01:02:25;36.60;;;20.70;;
4517;SDS011;2271;49.464;11.070;2024-03-02T01:04:51;34.00;;;21.83;;
4517;SDS011;2271;49.464;11.070;2024-03-02T01:07:17;32.50;;;20.33;;
4517;SDS011;2271;49.464;11.070;2024-03-02T01:09:43;35.07;;;21.30;;
4517;SDS011;2271;49.464;11.070;2024-03-02T01:12:10;39.90;;;22.30;;
4517;SDS011;2271;49.464;11.070;2024-03-02T01:14:35;36.30;;;21.00;;
4517;SDS011;2271;49.464;11.070;2024-03-02T01:17:01;32.40;;;20.27;;
4517;SDS011;2271;49.464;11.070;2024-03-02T01:19:29;33.43;;;21.93;;
4517;SDS011;2271;49.464;11.070;2024-03-02T01:21:55;36.90;;;21.77;;
4517;SDS011;2271;49.464;11.070;2024-03-02T01:24:21;41.23;;;21.27;;
4517;SDS011;2271;49.464;11.070;2024-03-02T01:26:46;39.23;;;22.33;;
4517;SDS011;2271;49.464;11.070;2024-03-02T01:29:12;38.30;;;20.93;;
4517;SDS011;2271;49.464;11.070;2024-03-02T01:31:37;34.87;;;21.13;;
4517;SDS011;2271;49.464;11.070;2024-03-02T01:34:07;36.53;;;21.53;;
4517;SDS011;2271;49.464;11.070;2024-03-02T01:36:33;34.17;;;21.53;;
4517;SDS011;2271;49.464;11.070;2024-03-02T01:38:58;34.37;;;20.10;;
4517;SDS011;2271;49.464;11.070;2024-03-02T01:41:24;38.57;;;21.93;;
4517;SDS011;2271;49.464;11.070;2024-03-02T01:43:50;38.20;;;22.07;;
4517;SDS011;2271;49.464;11.070;2024-03-02T01:46:15;33.47;;;21.40;;
4517;SDS011;2271;49.464;11.070;2024-03-02T01:48:41;32.67;;;20.87;;
4517;SDS011;2271;49.464;11.070;2024-03-02T01:51:07;33.63;;;20.57;;
4517;SDS011;2271;49.464;11.070;2024-03-02T01:53:32;34.27;;;19.90;;
4517;SDS011;2271;49.464;11.070;2024-03-02T01:55:59;38.40;;;22.07;;
4517;SDS011;2271;49.464;11.070;2024-03-02T01:58:26;38.67;;;22.40;;
4517;SDS011;2271;49.464;11.070;2024-03-02T02:00:52;31.93;;;20.13;;
4517;SDS011;2271;49.464;11.070;2024-03-02T02:03:18;35.30;;;20.57;;
4517;SDS011;2271;49.464;11.070;2024-03-02T02:05:43;36.07;;;22.00;;
4517;SDS011;2271;49.464;11.070;2024-03-02T02:08:09;32.63;;;20.73;;
4517;SDS011;2271;49.464;11.070;2024-03-02T02:10:35;32.73;;;20.47;;
4517;SDS011;2271;49.464;11.070;2024-03-02T02:13:01;40.23;;;21.53;;
4517;SDS011;2271;49.464;11.070;2024-03-02T02:15:30;32.60;;;20.87;;
4517;SDS011;2271;49.464;11.070;2024-03-02T02:17:57;34.47;;;21.53;;
4517;SDS011;2271;49.464;11.070;2024-03-02T02:20:23;34.17;;;20.77;;
4517;SDS011;2271;49.464;11.070;2024-03-02T02:22:56;35.33;;;21.20;;
4517;SDS011;2271;49.464;11.070;2024-03-02T02:25:22;38.83;;;21.83;;
4517;SDS011;2271;49.464;11.070;2024-03-02T02:27:48;32.53;;;20.83;;
4517;SDS011;2271;49.464;11.070;2024-03-02T02:30:13;41.13;;;22.43;;
4517;SDS011;2271;49.464;11.070;2024-03-02T02:32:43;38.70;;;21.13;;
4517;SDS011;2271;49.464;11.070;2024-03-02T02:35:08;34.00;;;20.83;;
4517;SDS011;2271;49.464;11.070;2024-03-02T02:37:34;34.17;;;21.00;;
4517;SDS011;2271;49.464;11.070;2024-03-02T02:40:00;36.43;;;21.23;;
4517;SDS011;2271;49.464;11.070;2024-03-02T02:42:25;35.37;;;20.30;;
4517;SDS011;2271;49.464;11.070;2024-03-02T02:44:51;33.10;;;20.73;;
4517;SDS011;2271;49.464;11.070;2024-03-02T02:47:16;32.07;;;20.27;;
4517;SDS011;2271;49.464;11.070;2024-03-02T02:49:42;32.73;;;20.47;;
4517;SDS011;2271;49.464;11.070;2024-03-02T02:52:08;40.07;;;21.43;;
4517;SDS011;2271;49.464;11.070;2024-03-02T02:54:33;39.73;;;21.03;;
4517;SDS011;2271;49.464;11.070;2024-03-02T02:56:59;37.73;;;21.13;;
4517;SDS011;2271;49.464;11.070;2024-03-02T02:59:24;30.93;;;19.23;;
4517;SDS011;2271;49.464;11.070;2024-03-02T03:01:51;32.63;;;20.60;;
4517;SDS011;2271;49.464;11.070;2024-03-02T03:04:17;34.73;;;20.30;;
4517;SDS011;2271;49.464;11.070;2024-03-02T03:06:42;34.90;;;19.93;;
4517;SDS011;2271;49.464;11.070;2024-03-02T03:09:08;34.53;;;20.17;;
4517;SDS011;2271;49.464;11.070;2024-03-02T03:11:36;31.93;;;19.00;;
4517;SDS011;2271;49.464;11.070;2024-03-02T03:14:01;30.77;;;18.27;;
4517;SDS011;2271;49.464;11.070;2024-03-02T03:16:28;35.50;;;19.83;;
4517;SDS011;2271;49.464;11.070;2024-03-02T03:18:59;32.37;;;19.93;;
4517;SDS011;2271;49.464;11.070;2024-03-02T03:21:25;32.30;;;19.13;;
4517;SDS011;2271;49.464;11.070;2024-03-02T03:23:50;33.13;;;18.67;;
4517;SDS011;2271;49.464;11.070;2024-03-02T03:26:16;29.80;;;19.73;;
4517;SDS011;2271;49.464;11.070;2024-03-02T03:28:41;30.33;;;19.03;;
4517;SDS011;2271;49.464;11.070;2024-03-02T03:31:07;27.93;;;17.87;;
4517;SDS011;2271;49.464;11.070;2024-03-02T03:33:32;29.07;;;18.57;;
4517;SDS011;2271;49.464;11.070;2024-03-02T03:35:58;28.73;;;19.27;;
4517;SDS011;2271;49.464;11.070;2024-03-02T03:38:24;25.37;;;16.63;;
4517;SDS011;2271;49.464;11.070;2024-03-02T03:40:49;29.50;;;18.50;;
4517;SDS011;2271;49.464;11.070;2024-03-02T03:43:15;24.60;;;15.93;;
4517;SDS011;2271;49.464;11.070;2024-03-02T03:45:41;27.43;;;17.10;;
4517;SDS011;2271;49.464;11.070;2024-03-02T03:48:06;26.30;;;16.97;;
4517;SDS011;2271;49.464;11.070;2024-03-02T03:50:32;23.83;;;15.97;;
4517;SDS011;2271;49.464;11.070;2024-03-02T03:52:58;24.13;;;15.47;;
4517;SDS011;2271;49.464;11.070;2024-03-02T03:55:23;29.83;;;15.87;;
4517;SDS011;2271;49.464;11.070;2024-03-02T03:57:49;23.90;;;14.70;;
4517;SDS011;2271;49.464;11.070;2024-03-02T04:00:15;21.63;;;15.47;;
4517;SDS011;2271;49.464;11.070;2024-03-02T04:02:40;22.80;;;14.83;;
4517;SDS011;2271;49.464;11.070;2024-03-02T04:05:06;19.20;;;13.60;;
4517;SDS011;2271;49.464;11.070;2024-03-02T04:07:36;21.20;;;14.07;;
4517;SDS011;2271;49.464;11.070;2024-03-02T04:10:08;21.27;;;13.63;;
4517;SDS011;2271;49.464;11.070;2024-03-02T04:12:36;19.93;;;13.53;;
4517;SDS011;2271;49.464;11.070;2024-03-02T04:15:02;20.27;;;13.10;;
4517;SDS011;2271;49.464;11.070;2024-03-02T04:17:30;21.87;;;13.00;;
4517;SDS011;2271;49.464;11.070;2024-03-02T04:19:57;20.87;;;12.70;;
4517;SDS011;2271;49.464;11.070;2024-03-02T04:22:23;17.43;;;12.50;;
4517;SDS011;2271;49.464;11.070;2024-03-02T04:24:49;17.83;;;12.33;;
4517;SDS011;2271;49.464;11.070;2024-03-02T04:27:14;18.00;;;12.03;;
4517;SDS011;2271;49.464;11.070;2024-03-02T04:29:40;16.70;;;11.83;;
4517;SDS011;2271;49.464;11.070;2024-03-02T04:32:06;18.90;;;12.60;;
4517;SDS011;2271;49.464;11.070;2024-03-02T04:34:31;17.57;;;11.67;;
4517;SDS011;2271;49.464;11.070;2024-03-02T04:36:57;23.10;;;13.03;;
4517;SDS011;2271;49.464;11.070;2024-03-02T04:39:23;18.70;;;12.27;;
4517;SDS011;2271;49.464;11.070;2024-03-02T04:41:49;18.90;;;12.00;;
4517;SDS011;2271;49.464;11.070;2024-03-02T04:44:15;18.43;;;13.37;;
4517;SDS011;2271;49.464;11.070;2024-03-02T04:46:41;19.73;;;12.60;;
4517;SDS011;2271;49.464;11.070;2024-03-02T04:49:06;20.00;;;12.93;;
4517;SDS011;2271;49.464;11.070;2024-03-02T04:51:32;19.20;;;12.43;;
4517;SDS011;2271;49.464;11.070;2024-03-02T04:53:57;19.40;;;12.00;;
4517;SDS011;2271;49.464;11.070;2024-03-02T04:56:23;19.40;;;12.83;;
4517;SDS011;2271;49.464;11.070;2024-03-02T04:58:58;18.87;;;13.00;;
4517;SDS011;2271;49.464;11.070;2024-03-02T05:01:24;20.20;;;13.67;;
4517;SDS011;2271;49.464;11.070;2024-03-02T05:03:49;25.00;;;14.67;;
4517;SDS011;2271;49.464;11.070;2024-03-02T05:06:15;21.57;;;14.17;;
4517;SDS011;2271;49.464;11.070;2024-03-02T05:08:41;22.27;;;13.40;;
4517;SDS011;2271;49.464;11.070;2024-03-02T05:11:06;22.20;;;14.00;;
4517;SDS011;2271;49.464;11.070;2024-03-02T05:13:51;23.23;;;14.60;;
4517;SDS011;2271;49.464;11.070;2024-03-02T05:16:16;21.50;;;13.80;;
4517;SDS011;2271;49.464;11.070;2024-03-02T05:18:42;19.97;;;13.37;;
4517;SDS011;2271;49.464;11.070;2024-03-02T05:21:07;22.37;;;13.47;;
4517;SDS011;2271;49.464;11.070;2024-03-02T05:23:33;20.67;;;12.83;;
4517;SDS011;2271;49.464;11.070;2024-03-02T05:25:59;21.30;;;13.33;;
4517;SDS011;2271;49.464;11.070;2024-03-02T05:28:24;19.90;;;14.10;;
4517;SDS011;2271;49.464;11.070;2024-03-02T05:30:50;21.33;;;13.87;;
4517;SDS011;2271;49.464;11.070;2024-03-02T05:33:15;20.83;;;13.90;;
4517;SDS011;2271;49.464;11.070;2024-03-02T05:35:41;22.23;;;14.23;;
4517;SDS011;2271;49.464;11.070;2024-03-02T05:38:08;20.33;;;13.77;;
4517;SDS011;2271;49.464;11.070;2024-03-02T05:40:34;21.13;;;13.33;;
4517;SDS011;2271;49.464;11.070;2024-03-02T05:42:59;21.70;;;13.73;;
4517;SDS011;2271;49.464;11.070;2024-03-02T05:45:25;18.80;;;12.80;;
4517;SDS011;2271;49.464;11.070;2024-03-02T05:47:51;22.17;;;13.53;;
4517;SDS011;2271;49.464;11.070;2024-03-02T05:50:16;22.87;;;14.37;;
4517;SDS011;2271;49.464;11.070;2024-03-02T05:52:42;25.63;;;13.40;;
4517;SDS011;2271;49.464;11.070;2024-03-02T05:55:07;22.30;;;13.97;;
4517;SDS011;2271;49.464;11.070;2024-03-02T05:57:33;20.87;;;13.50;;
4517;SDS011;2271;49.464;11.070;2024-03-02T06:00:13;22.27;;;13.27;;
4517;SDS011;2271;49.464;11.070;2024-03-02T06:02:42;22.57;;;13.17;;
4517;SDS011;2271;49.464;11.070;2024-03-02T06:05:07;24.93;;;14.23;;
4517;SDS011;2271;49.464;11.070;2024-03-02T06:07:33;21.23;;;14.40;;
4517;SDS011;2271;49.464;11.070;2024-03-02T06:09:59;23.63;;;13.87;;
4517;SDS011;2271;49.464;11.070;2024-03-02T06:12:25;23.50;;;14.03;;
4517;SDS011;2271;49.464;11.070;2024-03-02T06:14:50;20.97;;;13.43;;
4517;SDS011;2271;49.464;11.070;2024-03-02T06:17:16;21.30;;;12.93;;
4517;SDS011;2271;49.464;11.070;2024-03-02T06:19:42;19.43;;;13.90;;
4517;SDS011;2271;49.464;11.070;2024-03-02T06:22:07;19.87;;;13.93;;
4517;SDS011;2271;49.464;11.070;2024-03-02T06:24:35;10.40;;;7.40;;
4517;SDS011;2271;49.464;11.070;2024-03-02T06:27:02;22.67;;;14.57;;
4517;SDS011;2271;49.464;11.070;2024-03-02T06:29:29;22.70;;;14.70;;
4517;SDS011;2271;49.464;11.070;2024-03-02T06:31:54;18.57;;;12.90;;
4517;SDS011;2271;49.464;11.070;2024-03-02T06:34:20;20.97;;;13.60;;
4517;SDS011;2271;49.464;11.070;2024-03-02T06:36:46;19.43;;;13.10;;
4517;SDS011;2271;49.464;11.070;2024-03-02T06:39:11;22.57;;;13.57;;
4517;SDS011;2271;49.464;11.070;2024-03-02T06:41:37;20.83;;;13.83;;
4517;SDS011;2271;49.464;11.070;2024-03-02T06:44:03;18.57;;;13.67;;
4517;SDS011;2271;49.464;11.070;2024-03-02T06:46:29;21.63;;;13.97;;
4517;SDS011;2271;49.464;11.070;2024-03-02T06:48:54;21.03;;;13.23;;
4517;SDS011;2271;49.464;11.070;2024-03-02T06:51:20;21.40;;;13.27;;
4517;SDS011;2271;49.464;11.070;2024-03-02T06:53:45;25.97;;;14.17;;
4517;SDS011;2271;49.464;11.070;2024-03-02T06:56:11;20.90;;;13.87;;
4517;SDS011;2271;49.464;11.070;2024-03-02T06:58:37;22.07;;;14.40;;
4517;SDS011;2271;49.464;11.070;2024-03-02T07:01:03;23.27;;;14.57;;
4517;SDS011;2271;49.464;11.070;2024-03-02T07:03:28;18.43;;;13.47;;
4517;SDS011;2271;49.464;11.070;2024-03-02T07:05:54;23.37;;;15.73;;
4517;SDS011;2271;49.464;11.070;2024-03-02T07:08:20;22.50;;;14.23;;
4517;SDS011;2271;49.464;11.070;2024-03-02T07:10:45;21.50;;;13.47;;
4517;SDS011;2271;49.464;11.070;2024-03-02T07:13:12;20.10;;;14.00;;
4517;SDS011;2271;49.464;11.070;2024-03-02T07:15:38;22.43;;;14.33;;
4517;SDS011;2271;49.464;11.070;2024-03-02T07:18:22;20.03;;;13.70;;
4517;SDS011;2271;49.464;11.070;2024-03-02T07:20:47;25.97;;;15.33;;
4517;SDS011;2271;49.464;11.070;2024-03-02T07:23:14;23.50;;;15.00;;
4517;SDS011;2271;49.464;11.070;2024-03-02T07:25:40;20.37;;;13.87;;
4517;SDS011;2271;49.464;11.070;2024-03-02T07:28:06;23.33;;;14.70;;
4517;SDS011;2271;49.464;11.070;2024-03-02T07:30:32;21.03;;;14.03;;
4517;SDS011;2271;49.464;11.070;2024-03-02T07:32:58;21.87;;;14.37;;
4517;SDS011;2271;49.464;11.070;2024-03-02T07:35:24;23.40;;;14.90;;
4517;SDS011;2271;49.464;11.070;2024-03-02T07:37:53;24.53;;;14.53;;
4517;SDS011;2271;49.464;11.070;2024-03-02T07:40:20;25.57;;;14.63;;
4517;SDS011;2271;49.464;11.070;2024-03-02T07:42:46;22.30;;;13.93;;
4517;SDS011;2271;49.464;11.070;2024-03-02T07:45:11;20.17;;;13.27;;
4517;SDS011;2271;49.464;11.070;2024-03-02T07:47:37;20.43;;;13.13;;
4517;SDS011;2271;49.464;11.070;2024-03-02T07:50:03;22.70;;;14.10;;
4517;SDS011;2271;49.464;11.070;2024-03-02T07:52:31;24.57;;;15.03;;
4517;SDS011;2271;49.464;11.070;2024-03-02T07:54:57;19.70;;;14.07;;
4517;SDS011;2271;49.464;11.070;2024-03-02T07:57:23;21.67;;;13.80;;
4517;SDS011;2271;49.464;11.070;2024-03-02T07:59:48;21.43;;;12.97;;
4517;SDS011;2271;49.464;11.070;2024-03-02T08:02:14;22.47;;;13.37;;
4517;SDS011;2271;49.464;11.070;2024-03-02T08:04:40;22.00;;;12.37;;
4517;SDS011;2271;49.464;11.070;2024-03-02T08:07:06;22.43;;;13.67;;
4517;SDS011;2271;49.464;11.070;2024-03-02T08:09:32;20.70;;;13.73;;
4517;SDS011;2271;49.464;11.070;2024-03-02T08:11:57;20.27;;;14.00;;
4517;SDS011;2271;49.464;11.070;2024-03-02T08:14:23;22.13;;;13.17;;
4517;SDS011;2271;49.464;11.070;2024-03-02T08:16:49;20.23;;;12.87;;
4517;SDS011;2271;49.464;11.070;2024-03-02T08:19:16;18.00;;;13.00;;
4517;SDS011;2271;49.464;11.070;2024-03-02T08:21:42;21.00;;;13.57;;
4517;SDS011;2271;49.464;11.070;2024-03-02T08:24:08;21.17;;;13.13;;
4517;SDS011;2271;49.464;11.070;2024-03-02T08:26:34;18.20;;;12.63;;
4517;SDS011;2271;49.464;11.070;2024-03-02T08:29:00;21.70;;;13.50;;
4517;SDS011;2271;49.464;11.070;2024-03-02T08:31:29;17.20;;;11.63;;
4517;SDS011;2271;49.464;11.070;2024-03-02T08:33:55;17.97;;;12.33;;
4517;SDS011;2271;49.464;11.070;2024-03-02T08:36:22;17.93;;;11.37;;
4517;SDS011;2271;49.464;11.070;2024-03-02T08:38:48;18.57;;;13.07;;
4517;SDS011;2271;49.464;11.070;2024-03-02T08:41:14;18.93;;;11.50;;
4517;SDS011;2271;49.464;11.070;2024-03-02T08:43:41;16.20;;;11.03;;
4517;SDS011;2271;49.464;11.070;2024-03-02T08:46:07;16.93;;;11.80;;
4517;SDS011;2271;49.464;11.070;2024-03-02T08:48:33;18.33;;;11.70;;
4517;SDS011;2271;49.464;11.070;2024-03-02T08:50:59;18.47;;;12.57;;
4517;SDS011;2271;49.464;11.070;2024-03-02T08:53:25;11.27;;;8.43;;
4517;SDS011;2271;49.464;11.070;2024-03-02T08:55:51;15.20;;;10.37;;
4517;SDS011;2271;49.464;11.070;2024-03-02T08:58:20;14.37;;;10.33;;
4517;SDS011;2271;49.464;11.070;2024-03-02T09:00:46;14.27;;;10.17;;
4517;SDS011;2271;49.464;11.070;2024-03-02T09:03:12;16.33;;;10.93;;
4517;SDS011;2271;49.464;11.070;2024-03-02T09:05:38;14.90;;;11.43;;
4517;SDS011;2271;49.464;11.070;2024-03-02T09:08:04;14.80;;;10.53;;
4517;SDS011;2271;49.464;11.070;2024-03-02T09:10:30;16.50;;;10.47;;
4517;SDS011;2271;49.464;11.070;2024-03-02T09:12:55;13.97;;;10.17;;
4517;SDS011;2271;49.464;11.070;2024-03-02T09:15:21;14.07;;;10.30;;
4517;SDS011;2271;49.464;11.070;2024-03-02T09:17:46;12.43;;;9.03;;
4517;SDS011;2271;49.464;11.070;2024-03-02T09:20:12;14.57;;;9.70;;
4517;SDS011;2271;49.464;11.070;2024-03-02T09:22:39;13.83;;;9.53;;
4517;SDS011;2271;49.464;11.070;2024-03-02T09:25:04;13.30;;;8.60;;
4517;SDS011;2271;49.464;11.070;2024-03-02T09:27:32;13.07;;;9.10;;
4517;SDS011;2271;49.464;11.070;2024-03-02T09:29:57;10.63;;;8.73;;
4517;SDS011;2271;49.464;11.070;2024-03-02T09:32:23;11.50;;;8.73;;
4517;SDS011;2271;49.464;11.070;2024-03-02T09:34:49;10.60;;;8.57;;
4517;SDS011;2271;49.464;11.070;2024-03-02T09:37:14;10.93;;;8.50;;
4517;SDS011;2271;49.464;11.070;2024-03-02T09:39:40;11.40;;;8.57;;
4517;SDS011;2271;49.464;11.070;2024-03-02T09:42:10;14.23;;;9.13;;
4517;SDS011;2271;49.464;11.070;2024-03-02T09:44:36;11.63;;;9.47;;
4517;SDS011;2271;49.464;11.070;2024-03-02T09:47:02;10.87;;;8.23;;
4517;SDS011;2271;49.464;11.070;2024-03-02T09:49:28;14.57;;;9.97;;
4517;SDS011;2271;49.464;11.070;2024-03-02T09:51:53;11.27;;;8.50;;
4517;SDS011;2271;49.464;11.070;2024-03-02T09:54:19;11.00;;;8.53;;
4517;SDS011;2271;49.464;11.070;2024-03-02T09:56:46;11.87;;;9.20;;
4517;SDS011;2271;49.464;11.070;2024-03-02T09:59:11;10.77;;;7.47;;
4517;SDS011;2271;49.464;11.070;2024-03-02T10:01:51;12.73;;;8.30;;
4517;SDS011;2271;49.464;11.070;2024-03-02T10:04:27;13.87;;;8.13;;
4517;SDS011;2271;49.464;11.070;2024-03-02T10:09:42;14.30;;;8.83;;
4517;SDS011;2271;49.464;11.070;2024-03-02T10:12:09;10.63;;;8.30;;
4517;SDS011;2271;49.464;11.070;2024-03-02T10:14:39;9.90;;;7.73;;
4517;SDS011;2271;49.464;11.070;2024-03-02T10:17:09;9.70;;;7.77;;
4517;SDS011;2271;49.464;11.070;2024-03-02T10:19:37;9.60;;;7.70;;
4517;SDS011;2271;49.464;11.070;2024-03-02T10:22:04;10.83;;;8.17;;
4517;SDS011;2271;49.464;11.070;2024-03-02T10:24:35;11.23;;;8.37;;
4517;SDS011;2271;49.464;11.070;2024-03-02T10:27:02;10.90;;;8.37;;
4517;SDS011;2271;49.464;11.070;2024-03-02T10:29:38;11.30;;;7.90;;
4517;SDS011;2271;49.464;11.070;2024-03-02T10:32:10;11.30;;;8.60;;
4517;SDS011;2271;49.464;11.070;2024-03-02T10:34:36;12.17;;;8.67;;
4517;SDS011;2271;49.464;11.070;2024-03-02T10:37:05;13.07;;;8.50;;
4517;SDS011;2271;49.464;11.070;2024-03-02T10:39:32;13.03;;;9.33;;
4517;SDS011;2271;49.464;11.070;2024-03-02T10:42:01;11.95;;;9.35;;
4517;SDS011;2271;49.464;11.070;2024-03-02T10:44:31;12.48;;;9.65;;
4517;SDS011;2271;49.464;11.070;2024-03-02T10:46:57;13.07;;;10.17;;
4517;SDS011;2271;49.464;11.070;2024-03-02T10:49:27;12.60;;;9.60;;
4517;SDS011;2271;49.464;11.070;2024-03-02T10:51:55;13.70;;;10.90;;
4517;SDS011;2271;49.464;11.070;2024-03-02T10:54:21;12.07;;;9.27;;
4517;SDS011;2271;49.464;11.070;2024-03-02T10:56:51;14.38;;;10.00;;
4517;SDS011;2271;49.464;11.070;2024-03-02T10:59:28;16.20;;;10.50;;
4517;SDS011;2271;49.464;11.070;2024-03-02T11:01:59;14.83;;;10.53;;
4517;SDS011;2271;49.464;11.070;2024-03-02T11:04:26;16.23;;;11.70;;
4517;SDS011;2271;49.464;11.070;2024-03-02T11:07:09;16.48;;;12.60;;
4517;SDS011;2271;49.464;11.070;2024-03-02T11:09:44;15.80;;;11.32;;
4517;SDS011;2271;49.464;11.070;2024-03-02T11:14:54;17.00;;;11.57;;
4517;SDS011;2271;49.464;11.070;2024-03-02T11:17:21;18.00;;;12.40;;
4517;SDS011;2271;49.464;11.070;2024-03-02T11:19:48;20.20;;;13.43;;
4517;SDS011;2271;49.464;11.070;2024-03-02T11:22:15;17.73;;;12.77;;
4517;SDS011;2271;49.464;11.070;2024-03-02T11:24:50;14.98;;;11.57;;
4517;SDS011;2271;49.464;11.070;2024-03-02T11:30:55;17.52;;;12.10;;
4517;SDS011;2271;49.464;11.070;2024-03-02T11:32:56;15.37;;;12.20;;
4517;SDS011;2271;49.464;11.070;2024-03-02T11:35:23;18.92;;;12.30;;
4517;SDS011;2271;49.464;11.070;2024-03-02T11:37:55;16.08;;;12.43;;
4517;SDS011;2271;49.464;11.070;2024-03-02T11:40:26;12.93;;;10.67;;
4517;SDS011;2271;49.464;11.070;2024-03-02T11:42:53;16.90;;;11.25;;
4517;SDS011;2271;49.464;11.070;2024-03-02T11:45:24;13.70;;;9.43;;
4517;SDS011;2271;49.464;11.070;2024-03-02T11:47:51;20.38;;;10.88;;
4517;SDS011;2271;49.464;11.070;2024-03-02T11:53:08;15.07;;;9.63;;
4517;SDS011;2271;49.464;11.070;2024-03-02T11:55:35;13.93;;;9.90;;
4517;SDS011;2271;49.464;11.070;2024-03-02T11:58:03;15.23;;;9.60;;
4517;SDS011;2271;49.464;11.070;2024-03-02T12:00:29;17.43;;;10.67;;
4517;SDS011;2271;49.464;11.070;2024-03-02T12:05:28;16.67;;;11.33;;
4517;SDS011;2271;49.464;11.070;2024-03-02T12:07:59;15.07;;;10.77;;
4517;SDS011;2271;49.464;11.070;2024-03-02T12:10:26;15.10;;;11.17;;
4517;SDS011;2271;49.464;11.070;2024-03-02T12:13:10;15.00;;;10.73;;
4517;SDS011;2271;49.464;11.070;2024-03-02T12:15:38;16.03;;;12.00;;
4517;SDS011;2271;49.464;11.070;2024-03-02T12:18:05;16.50;;;11.47;;
4517;SDS011;2271;49.464;11.070;2024-03-02T12:20:33;23.73;;;13.30;;
4517;SDS011;2271;49.464;11.070;2024-03-02T12:22:59;19.25;;;13.25;;
4517;SDS011;2271;49.464;11.070;2024-03-02T12:25:29;22.33;;;13.37;;
4517;SDS011;2271;49.464;11.070;2024-03-02T12:27:58;18.90;;;13.13;;
4517;SDS011;2271;49.464;11.070;2024-03-02T12:30:26;18.43;;;12.83;;
4517;SDS011;2271;49.464;11.070;2024-03-02T12:32:54;20.77;;;14.00;;
4517;SDS011;2271;49.464;11.070;2024-03-02T12:35:20;20.80;;;13.70;;
4517;SDS011;2271;49.464;11.070;2024-03-02T12:37:49;21.98;;;15.05;;
4517;SDS011;2271;49.464;11.070;2024-03-02T12:40:17;20.52;;;13.27;;
4517;SDS011;2271;49.464;11.070;2024-03-02T12:42:47;24.92;;;15.75;;
4517;SDS011;2271;49.464;11.070;2024-03-02T12:45:15;24.55;;;15.10;;
4517;SDS011;2271;49.464;11.070;2024-03-02T12:47:41;21.03;;;14.93;;
4517;SDS011;2271;49.464;11.070;2024-03-02T12:50:07;22.40;;;14.77;;
4517;SDS011;2271;49.464;11.070;2024-03-02T12:52:35;21.70;;;13.43;;
4517;SDS011;2271;49.464;11.070;2024-03-02T12:55:01;21.83;;;14.77;;
4517;SDS011;2271;49.464;11.070;2024-03-02T12:57:32;21.95;;;13.55;;
4517;SDS011;2271;49.464;11.070;2024-03-02T13:00:02;20.83;;;14.57;;
4517;SDS011;2271;49.464;11.070;2024-03-02T13:02:35;28.70;;;15.18;;
4517;SDS011;2271;49.464;11.070;2024-03-02T13:05:02;18.15;;;13.43;;
4517;SDS011;2271;49.464;11.070;2024-03-02T13:07:29;20.05;;;12.77;;
4517;SDS011;2271;49.464;11.070;2024-03-02T13:09:55;20.38;;;13.15;;
4517;SDS011;2271;49.464;11.070;2024-03-02T13:12:21;17.15;;;12.13;;
4517;SDS011;2271;49.464;11.070;2024-03-02T13:14:49;20.98;;;13.18;;
4517;SDS011;2271;49.464;11.070;2024-03-02T13:17:18;16.55;;;11.93;;
4517;SDS011;2271;49.464;11.070;2024-03-02T13:19:51;17.63;;;11.75;;
4517;SDS011;2271;49.464;11.070;2024-03-02T13:22:21;15.32;;;11.23;;
4517;SDS011;2271;49.464;11.070;2024-03-02T13:24:47;16.20;;;10.85;;
4517;SDS011;2271;49.464;11.070;2024-03-02T13:27:13;16.38;;;11.18;;
4517;SDS011;2271;49.464;11.070;2024-03-02T13:29:39;14.80;;;10.23;;
4517;SDS011;2271;49.464;11.070;2024-03-02T13:32:05;15.45;;;9.35;;
4517;SDS011;2271;49.464;11.070;2024-03-02T13:34:31;14.55;;;9.88;;
4517;SDS011;2271;49.464;11.070;2024-03-02T13:36:56;12.73;;;9.80;;
4517;SDS011;2271;49.464;11.070;2024-03-02T13:39:22;17.27;;;10.18;;
4517;SDS011;2271;49.464;11.070;2024-03-02T13:41:48;14.75;;;10.13;;
4517;SDS011;2271;49.464;11.070;2024-03-02T13:44:18;15.13;;;8.98;;
4517;SDS011;2271;49.464;11.070;2024-03-02T13:46:44;17.23;;;10.57;;
4517;SDS011;2271;49.464;11.070;2024-03-02T13:49:11;13.38;;;9.30;;
4517;SDS011;2271;49.464;11.070;2024-03-02T13:51:37;14.82;;;10.35;;
4517;SDS011;2271;49.464;11.070;2024-03-02T13:54:02;16.83;;;10.50;;
4517;SDS011;2271;49.464;11.070;2024-03-02T13:56:29;13.73;;;9.73;;
4517;SDS011;2271;49.464;11.070;2024-03-02T13:58:55;13.27;;;10.02;;
4517;SDS011;2271;49.464;11.070;2024-03-02T14:01:20;14.10;;;9.57;;
4517;SDS011;2271;49.464;11.070;2024-03-02T14:03:46;14.88;;;9.02;;
4517;SDS011;2271;49.464;11.070;2024-03-02T14:06:12;12.60;;;9.18;;
4517;SDS011;2271;49.464;11.070;2024-03-02T14:08:38;12.82;;;8.95;;
4517;SDS011;2271;49.464;11.070;2024-03-02T14:11:04;13.07;;;8.23;;
4517;SDS011;2271;49.464;11.070;2024-03-02T14:13:30;13.10;;;9.00;;
4517;SDS011;2271;49.464;11.070;2024-03-02T14:15:55;14.63;;;7.95;;
4517;SDS011;2271;49.464;11.070;2024-03-02T14:18:21;13.35;;;8.48;;
4517;SDS011;2271;49.464;11.070;2024-03-02T14:20:47;12.45;;;8.10;;
4517;SDS011;2271;49.464;11.070;2024-03-02T14:23:18;13.02;;;8.38;;
4517;SDS011;2271;49.464;11.070;2024-03-02T14:25:44;12.07;;;8.02;;
4517;SDS011;2271;49.464;11.070;2024-03-02T14:28:10;13.20;;;8.65;;
4517;SDS011;2271;49.464;11.070;2024-03-02T14:30:37;13.02;;;8.73;;
4517;SDS011;2271;49.464;11.070;2024-03-02T14:33:02;14.68;;;9.63;;
4517;SDS011;2271;49.464;11.070;2024-03-02T14:35:28;15.35;;;9.50;;
4517;SDS011;2271;49.464;11.070;2024-03-02T14:37:54;15.65;;;9.82;;
4517;SDS011;2271;49.464;11.070;2024-03-02T14:40:22;19.00;;;11.13;;
4517;SDS011;2271;49.464;11.070;2024-03-02T14:42:51;19.02;;;11.43;;
4517;SDS011;2271;49.464;11.070;2024-03-02T14:45:17;16.95;;;11.80;;
4517;SDS011;2271;49.464;11.070;2024-03-02T14:47:42;20.77;;;12.07;;